.
WxDataArchive / Data Records for 2007-11-04
2007-11-03 November 2007 2007-11-05

Data Records for Sunday, 04 November 2007

Time	Temp	Chill	HIndex	Humid	Dewpt	 Wind 	HiWind	WindDir	Rain 	Barom 
-----	----	-----	------	-----	-----	------	------	-------	-----	----- 
00:00	33.7	33.7	33.7	85	29.7	0	0	---	0.00	30.011 
00:05	33.5	33.5	33.5	85	29.5	0	0	---	0.00	30.009 
00:10	33.4	33.4	33.4	86	29.7	0	0	---	0.00	30.010 
00:15	33.1	33.1	33.1	86	29.4	0	0	---	0.00	30.009 
00:20	32.9	32.9	32.9	86	29.2	0	0	---	0.00	30.011 
00:25	32.8	32.8	32.8	86	29.1	0	0	---	0.00	30.008 
00:30	32.8	32.8	32.8	87	29.4	0	0	---	0.00	30.009 
00:35	32.8	32.8	32.8	88	29.6	0	0	---	0.00	30.006 
00:40	32.8	32.8	32.8	88	29.6	0	0	---	0.00	30.007 
00:45	32.8	32.8	32.8	88	29.6	0	0	---	0.00	30.006 
00:50	32.9	32.9	32.9	88	29.7	0	0	---	0.00	30.007 
00:55	32.9	32.9	32.9	88	29.7	0	0	---	0.00	30.005 
01:00	32.9	32.9	32.9	88	29.7	0	0	---	0.00	30.005 
01:05	32.9	32.9	32.9	89	30.0	0	0	---	0.00	30.004 
01:10	32.9	32.9	32.9	89	30.0	0	0	---	0.00	30.000 
01:15	32.9	32.9	32.9	89	30.0	0	0	---	0.00	29.999 
01:20	33.1	33.1	33.1	89	30.2	0	0	---	0.00	30.001 
01:25	33.1	33.1	33.1	89	30.2	0	0	---	0.00	30.002 
01:30	33.2	33.2	33.2	89	30.3	0	0	---	0.00	29.997 
01:35	33.2	33.2	33.2	89	30.3	0	0	---	0.00	29.994 
01:40	33.2	33.2	33.2	89	30.3	0	0	---	0.00	29.992 
01:45	33.2	33.2	33.2	89	30.3	0	0	---	0.00	29.991 
01:50	33.2	33.2	33.2	89	30.3	0	0	---	0.00	29.991 
01:55	33.2	33.2	33.2	89	30.3	0	0	---	0.00	29.989 
02:00	33.2	33.2	33.2	90	30.6	0	0	---	0.00	29.987 
02:05	33.4	33.4	33.4	90	30.8	0	0	---	0.00	29.984 
02:10	33.4	33.4	33.4	90	30.8	0	0	---	0.00	29.985 
02:15	33.4	33.4	33.4	90	30.8	0	0	---	0.00	29.985 
02:20	33.5	33.5	33.5	90	30.9	0	0	---	0.00	29.986 
02:25	33.5	33.5	33.5	90	30.9	0	0	---	0.00	29.984 
02:30	33.5	33.5	33.5	90	30.9	0	0	---	0.00	29.986 
02:35	33.5	33.5	33.5	90	30.9	0	0	---	0.00	29.986 
02:40	33.5	33.5	33.5	90	30.9	0	0	---	0.00	29.985 
02:45	33.5	33.5	33.5	90	30.9	0	0	---	0.00	29.983 
02:50	33.5	33.5	33.5	90	30.9	0	0	---	0.00	29.980 
02:55	33.5	33.5	33.5	90	30.9	0	0	---	0.00	29.980 
03:00	33.7	33.7	33.7	90	31.1	0	0	---	0.00	29.975 
03:05	33.7	33.7	33.7	90	31.1	0	0	---	0.00	29.976 
03:10	33.7	33.7	33.7	90	31.1	0	0	---	0.00	29.973 
03:15	33.7	33.7	33.7	90	31.1	0	0	---	0.00	29.969 
03:20	33.7	33.7	33.7	90	31.1	0	0	---	0.00	29.965 
03:25	33.7	33.7	33.7	90	31.1	0	0	---	0.00	29.963 
03:30	33.7	33.7	33.7	90	31.1	0	0	---	0.00	29.962 
03:35	33.8	33.8	33.8	90	31.2	0	0	---	0.00	29.962 
03:40	34.0	34.0	34.0	90	31.4	0	0	---	0.00	29.962 
03:45	34.0	34.0	34.0	90	31.4	0	0	---	0.00	29.961 
03:50	34.1	34.1	34.1	91	31.8	0	0	---	0.00	29.961 
03:55	34.3	34.3	34.3	91	32.0	0	0	---	0.00	29.960 
04:00	34.4	34.4	34.4	91	32.0	0	0	---	0.00	29.960 
04:05	34.7	34.7	34.7	90	32.1	0	0	---	0.00	29.960 
04:10	35.0	35.0	35.0	90	32.4	0	1	292	0.00	29.961 
04:15	35.5	35.5	35.5	88	32.3	0	1	292	0.00	29.960 
04:20	35.8	35.8	35.8	86	32.0	0	1	292	0.00	29.960 
04:25	36.2	36.2	36.2	84	31.8	0	1	292	0.00	29.959 
04:30	36.8	36.8	36.8	81	31.5	1	4	248	0.00	29.956 
04:35	37.9	37.9	37.9	76	31.0	1	5	248	0.00	29.958 
04:40	39.2	39.2	39.2	72	30.9	3	10	248	0.00	29.957 
04:45	40.2	37.5	40.2	70	31.2	4	12	248	0.00	29.956 
04:50	40.8	40.8	40.8	69	31.4	3	9	248	0.00	29.955 
04:55	41.1	41.1	41.1	69	31.7	3	10	248	0.00	29.956 
05:00	41.2	41.2	41.2	70	32.2	2	5	225	0.00	29.950 
05:05	41.5	41.5	41.5	71	32.8	1	4	248	0.00	29.944 
05:10	41.8	41.8	41.8	71	33.1	0	2	248	0.00	29.942 
05:15	42.1	42.1	42.1	70	33.0	2	5	248	0.00	29.948 
05:20	42.2	42.2	42.2	71	33.5	2	6	248	0.00	29.943 
05:25	42.1	42.1	42.1	71	33.4	1	4	225	0.00	29.942 
05:30	41.9	41.9	41.9	72	33.5	0	3	270	0.00	29.942 
05:35	41.8	41.8	41.8	73	33.8	0	3	270	0.00	29.941 
05:40	41.6	41.6	41.6	73	33.6	0	2	248	0.00	29.941 
05:45	41.3	41.3	41.3	73	33.3	0	2	248	0.00	29.942 
05:50	41.2	41.2	41.2	74	33.6	0	1	248	0.00	29.939 
05:55	41.1	41.1	41.1	75	33.8	0	1	248	0.00	29.936 
06:00	41.1	41.1	41.1	74	33.5	0	2	248	0.00	29.934 
06:05	41.2	41.2	41.2	74	33.6	0	2	248	0.00	29.935 
06:10	41.2	41.2	41.2	73	33.2	0	1	248	0.00	29.936 
06:15	41.3	41.3	41.3	73	33.3	0	1	248	0.00	29.933 
06:20	41.3	41.3	41.3	72	33.0	1	3	248	0.00	29.931 
06:25	41.8	41.8	41.8	70	32.7	1	4	248	0.00	29.928 
06:30	41.9	41.9	41.9	69	32.5	0	2	248	0.00	29.926 
06:35	42.2	42.2	42.2	69	32.8	0	2	248	0.00	29.921 
06:40	42.3	42.3	42.3	69	32.9	0	0	---	0.00	29.919 
06:45	42.3	42.3	42.3	68	32.5	0	0	---	0.00	29.919 
06:50	42.3	42.3	42.3	68	32.5	0	1	248	0.00	29.919 
06:55	42.3	42.3	42.3	68	32.5	0	1	248	0.00	29.917 
07:00	42.3	42.3	42.3	68	32.5	0	1	248	0.00	29.918 
07:05	42.5	42.5	42.5	67	32.3	0	1	248	0.00	29.921 
07:10	42.5	42.5	42.5	67	32.3	0	1	248	0.00	29.920 
07:15	42.5	42.5	42.5	67	32.3	0	0	---	0.00	29.921 
07:20	42.5	42.5	42.5	67	32.3	0	1	248	0.00	29.921 
07:25	42.5	42.5	42.5	67	32.3	0	0	---	0.00	29.921 
07:30	42.3	42.3	42.3	68	32.5	0	0	---	0.00	29.921 
07:35	42.2	42.2	42.2	68	32.4	0	0	---	0.00	29.923 
07:40	42.1	42.1	42.1	68	32.3	0	0	---	0.00	29.923 
07:45	41.9	41.9	41.9	69	32.5	0	0	---	0.00	29.922 
07:50	41.8	41.8	41.8	71	33.1	0	0	---	0.00	29.919 
07:55	41.6	41.6	41.6	72	33.3	0	1	248	0.00	29.917 
08:00	41.5	41.5	41.5	73	33.5	0	0	---	0.00	29.917 
08:05	41.5	41.5	41.5	73	33.5	0	0	---	0.00	29.921 
08:10	41.6	41.6	41.6	73	33.6	0	0	---	0.00	29.922 
08:15	41.8	41.8	41.8	75	34.5	0	0	---	0.00	29.923 
08:20	41.9	41.9	41.9	74	34.2	0	0	---	0.00	29.922 
08:25	42.2	42.2	42.2	74	34.5	0	0	---	0.00	29.921 
08:30	42.5	42.5	42.5	73	34.5	0	0	---	0.00	29.919 
08:35	42.6	42.6	42.6	71	33.9	0	0	---	0.00	29.919 
08:40	43.1	43.1	43.1	71	34.3	0	0	---	0.00	29.920 
08:45	43.3	43.3	43.3	71	34.5	0	0	---	0.00	29.918 
08:50	43.5	43.5	43.5	69	34.0	0	1	248	0.00	29.916 
08:55	43.8	43.8	43.8	70	34.7	0	1	248	0.00	29.909 
09:00	43.9	43.9	43.9	70	34.8	0	0	---	0.00	29.908 
09:05	43.9	43.9	43.9	69	34.4	0	1	248	0.00	29.908 
09:10	44.1	44.1	44.1	70	35.0	0	0	---	0.00	29.909 
09:15	44.3	44.3	44.3	70	35.1	0	1	248	0.00	29.907 
09:20	44.5	44.5	44.5	70	35.3	0	1	248	0.00	29.905 
09:25	44.6	44.6	44.6	70	35.4	0	1	248	0.00	29.904 
09:30	44.8	44.8	44.8	69	35.3	0	1	248	0.00	29.903 
09:35	44.9	44.9	44.9	69	35.4	0	1	248	0.00	29.903 
09:40	45.1	45.1	45.1	69	35.5	0	1	248	0.00	29.903 
09:45	45.1	45.1	45.1	67	34.8	0	1	248	0.00	29.902 
09:50	45.2	45.2	45.2	66	34.5	0	2	158	0.00	29.900 
09:55	45.2	45.2	45.2	66	34.5	0	2	158	0.00	29.897 
10:00	45.2	45.2	45.2	66	34.5	0	2	135	0.00	29.896 
10:05	45.4	45.4	45.4	65	34.3	0	2	135	0.00	29.894 
10:10	45.5	45.5	45.5	64	34.0	0	1	135	0.00	29.894 
10:15	45.7	45.7	45.7	64	34.2	0	1	135	0.00	29.891 
10:20	45.8	45.8	45.8	63	33.9	0	2	135	0.00	29.890 
10:25	46.0	46.0	46.0	62	33.7	1	2	90	0.00	29.887 
10:30	46.2	46.2	46.2	62	33.9	0	2	90	0.00	29.885 
10:35	46.7	46.7	46.7	62	34.4	1	4	90	0.00	29.879 
10:40	47.0	47.0	47.0	60	33.8	1	3	90	0.00	29.876 
10:45	47.1	47.1	47.1	58	33.1	1	5	90	0.00	29.874 
10:50	47.3	47.3	47.3	58	33.3	1	2	135	0.00	29.873 
10:55	47.4	47.4	47.4	58	33.4	1	3	90	0.00	29.872 
11:00	47.7	47.7	47.7	58	33.7	1	3	90	0.00	29.871 
11:05	48.3	48.3	48.3	54	32.4	1	5	90	0.00	29.869 
11:10	48.5	48.5	48.5	54	32.6	1	5	135	0.00	29.865 
11:15	49.1	49.1	49.1	55	33.6	1	4	90	0.00	29.862 
11:20	49.6	49.6	49.6	53	33.2	2	5	90	0.00	29.856 
11:25	49.9	49.9	49.9	52	33.0	1	4	112	0.00	29.854 
11:30	50.2	50.2	50.2	48	31.3	1	4	90	0.00	29.853 
11:35	50.4	50.4	50.4	49	32.0	1	7	112	0.00	29.852 
11:40	50.7	50.7	50.7	48	31.7	1	5	68	0.00	29.850 
11:45	50.8	50.8	50.8	47	31.3	1	4	90	0.00	29.848 
11:50	51.1	51.1	51.1	46	31.0	2	6	90	0.00	29.845 
11:55	51.3	51.3	51.3	46	31.2	1	4	112	0.00	29.840 
12:00	51.4	51.4	51.4	45	30.8	2	4	90	0.00	29.840 
12:05	51.6	51.6	51.6	45	31.0	1	5	90	0.00	29.839 
12:10	51.7	51.7	51.7	45	31.1	2	6	90	0.00	29.839 
12:15	52.0	52.0	52.0	47	32.4	1	5	158	0.00	29.836 
12:20	52.0	52.0	52.0	44	30.8	3	7	90	0.00	29.836 
12:25	52.0	52.0	52.0	43	30.2	2	7	90	0.00	29.836 
12:30	52.2	52.2	52.2	45	31.5	2	6	90	0.00	29.823 
12:35	52.5	52.5	52.5	44	31.2	1	4	68	0.00	29.823 
12:40	52.8	52.8	52.8	44	31.5	2	6	90	0.00	29.823 
12:45	53.1	53.1	53.1	42	30.6	2	6	90	0.00	29.810 
12:50	53.3	53.3	53.3	42	30.8	1	4	248	0.00	29.810 
12:55	53.6	53.6	53.6	43	31.7	1	6	248	0.00	29.810 
13:00	53.6	53.6	53.6	41	30.5	1	5	248	0.00	29.802 
13:05	54.1	54.1	54.1	41	30.9	1	5	112	0.00	29.802 
13:10	54.2	54.2	54.2	41	31.0	1	7	270	0.00	29.802 
13:15	54.4	54.4	54.4	40	30.6	1	4	270	0.00	29.798 
13:20	54.8	54.8	54.8	38	29.7	2	6	248	0.00	29.798 
13:25	55.0	55.0	55.0	38	29.9	2	9	248	0.00	29.789 
13:30	55.0	55.0	55.0	38	29.9	2	7	248	0.00	29.791 
13:35	54.8	54.8	54.8	38	29.7	3	6	248	0.00	29.790 
13:40	54.8	54.8	54.8	39	30.3	2	7	248	0.00	29.788 
13:45	55.0	55.0	55.0	39	30.5	1	4	248	0.00	29.789 
13:50	55.1	55.1	55.1	39	30.6	1	6	248	0.00	29.789 
13:55	55.3	55.3	55.3	39	30.8	1	4	248	0.00	29.789 
14:00	55.3	55.3	55.3	37	29.5	2	4	225	0.00	29.788 
14:05	55.1	55.1	55.1	39	30.6	1	4	225	0.00	29.788 
14:10	55.1	55.1	55.1	39	30.6	1	4	248	0.00	29.789 
14:15	54.8	54.8	54.8	39	30.3	2	5	248	0.00	29.792 
14:20	54.7	54.7	54.7	39	30.2	2	5	270	0.00	29.792 
14:25	54.5	54.5	54.5	40	30.7	2	7	270	0.00	29.792 
14:30	54.5	54.5	54.5	40	30.7	3	10	248	0.00	29.797 
14:35	54.4	54.4	54.4	39	30.0	3	7	248	0.00	29.798 
14:40	54.2	54.2	54.2	40	30.4	3	7	248	0.00	29.797 
14:45	54.2	54.2	54.2	41	31.0	2	7	248	0.00	29.794 
14:50	54.2	54.2	54.2	40	30.4	2	7	248	0.00	29.793 
14:55	54.5	54.5	54.5	41	31.3	3	6	248	0.00	29.799 
15:00	54.8	54.8	54.8	39	30.3	3	7	248	0.00	29.800 
15:05	54.7	54.7	54.7	40	30.9	3	7	248	0.00	29.801 
15:10	54.7	54.7	54.7	42	32.1	3	7	248	0.00	29.802 
15:15	54.7	54.7	54.7	43	32.6	2	5	248	0.00	29.801 
15:20	54.8	54.8	54.8	41	31.6	2	5	248	0.00	29.803 
15:25	54.2	54.2	54.2	42	31.6	2	11	315	0.00	29.804 
15:30	53.9	53.9	53.9	43	31.9	2	4	248	0.00	29.805 
15:35	54.2	54.2	54.2	43	32.2	3	8	248	0.00	29.806 
15:40	54.1	54.1	54.1	41	30.9	4	9	248	0.00	29.810 
15:45	53.8	53.8	53.8	42	31.3	2	4	248	0.00	29.810 
15:50	53.5	53.5	53.5	42	31.0	2	5	248	0.00	29.812 
15:55	53.1	53.1	53.1	43	31.2	2	5	270	0.00	29.816 
16:00	52.8	52.8	52.8	43	30.9	2	5	202	0.00	29.816 
16:05	52.8	52.8	52.8	42	30.3	3	10	248	0.00	29.810 
16:10	52.5	52.5	52.5	44	31.2	3	6	248	0.00	29.811 
16:15	52.6	52.6	52.6	43	30.7	2	5	248	0.00	29.812 
16:20	52.8	52.8	52.8	45	32.1	2	5	248	0.00	29.814 
16:25	52.5	52.5	52.5	43	30.7	2	4	270	0.00	29.815 
16:30	52.5	52.5	52.5	44	31.2	2	4	248	0.00	29.818 
16:35	52.2	52.2	52.2	44	31.0	3	7	270	0.00	29.819 
16:40	51.7	51.7	51.7	45	31.1	3	7	270	0.00	29.823 
16:45	51.6	51.6	51.6	46	31.5	1	4	248	0.00	29.825 
16:50	51.3	51.3	51.3	46	31.2	2	4	248	0.00	29.827 
16:55	51.1	51.1	51.1	47	31.6	1	4	248	0.00	29.829 
17:00	50.8	50.8	50.8	48	31.8	1	3	248	0.00	29.829 
17:05	50.4	50.4	50.4	48	31.5	1	2	248	0.00	29.830 
17:10	50.1	50.1	50.1	49	31.7	0	2	248	0.00	29.832 
17:15	49.6	49.6	49.6	50	31.7	0	1	338	0.00	29.833 
17:20	49.4	49.4	49.4	51	32.0	0	2	338	0.00	29.837 
17:25	49.1	49.1	49.1	51	31.8	0	2	270	0.00	29.837 
17:30	48.8	48.8	48.8	52	32.0	0	1	270	0.00	29.840 
17:35	48.5	48.5	48.5	53	32.2	0	1	270	0.00	29.843 
17:40	48.2	48.2	48.2	54	32.3	0	1	270	0.00	29.847 
17:45	47.9	47.9	47.9	54	32.1	0	0	---	0.00	29.848 
17:50	47.6	47.6	47.6	55	32.2	0	1	270	0.00	29.849 
17:55	47.3	47.3	47.3	55	32.0	0	1	270	0.00	29.850 
18:00	47.0	47.0	47.0	56	32.1	0	0	---	0.00	29.851 
18:05	46.7	46.7	46.7	57	32.3	0	0	---	0.00	29.855 
18:10	46.4	46.4	46.4	57	32.0	0	0	---	0.00	29.857 
18:15	46.2	46.2	46.2	58	32.2	0	1	270	0.00	29.860 
18:20	46.0	46.0	46.0	58	32.1	0	1	270	0.00	29.864 
18:25	45.8	45.8	45.8	58	31.9	0	0	---	0.00	29.865 
18:30	45.7	45.7	45.7	59	32.2	0	1	270	0.00	29.867 
18:35	45.5	45.5	45.5	59	32.0	0	0	---	0.00	29.867 
18:40	45.4	45.4	45.4	59	31.9	0	1	270	0.00	29.869 
18:45	45.2	45.2	45.2	59	31.7	0	1	270	0.00	29.871 
18:50	45.4	45.4	45.4	60	32.3	0	3	270	0.00	29.871 
18:55	45.7	45.7	45.7	60	32.6	1	3	248	0.00	29.872 
19:00	45.7	45.7	45.7	60	32.6	0	1	248	0.00	29.873 
19:05	45.5	45.5	45.5	60	32.4	0	1	248	0.00	29.873 
19:10	45.2	45.2	45.2	60	32.1	0	1	248	0.00	29.878 
19:15	44.9	44.9	44.9	61	32.3	0	1	248	0.00	29.880 
19:20	44.8	44.8	44.8	62	32.6	0	1	248	0.00	29.876 
19:25	44.6	44.6	44.6	62	32.4	0	1	248	0.00	29.881 
19:30	44.5	44.5	44.5	63	32.7	0	3	248	0.00	29.883 
19:35	44.3	44.3	44.3	63	32.5	0	1	248	0.00	29.884 
19:40	44.3	44.3	44.3	64	32.9	0	1	248	0.00	29.883 
19:45	44.2	44.2	44.2	64	32.8	0	1	248	0.00	29.883 
19:50	44.1	44.1	44.1	64	32.7	0	1	248	0.00	29.883 
19:55	43.8	43.8	43.8	65	32.8	0	1	248	0.00	29.882 
20:00	43.5	43.5	43.5	65	32.5	0	1	248	0.00	29.882 
20:05	43.3	43.3	43.3	66	32.7	0	1	248	0.00	29.881 
20:10	43.1	43.1	43.1	66	32.5	0	1	248	0.00	29.882 
20:15	42.9	42.9	42.9	67	32.7	0	1	248	0.00	29.883 
20:20	42.8	42.8	42.8	67	32.6	0	1	248	0.00	29.883 
20:25	42.6	42.6	42.6	68	32.8	0	1	248	0.00	29.883 
20:30	42.3	42.3	42.3	68	32.5	0	1	248	0.00	29.885 
20:35	42.2	42.2	42.2	69	32.8	0	1	248	0.00	29.885 
20:40	42.1	42.1	42.1	69	32.7	0	1	248	0.00	29.885 
20:45	41.9	41.9	41.9	69	32.5	0	1	248	0.00	29.889 
20:50	41.6	41.6	41.6	70	32.6	0	0	---	0.00	29.889 
20:55	41.5	41.5	41.5	71	32.8	0	0	---	0.00	29.889 
21:00	41.2	41.2	41.2	71	32.5	0	0	---	0.00	29.886 
21:05	40.9	40.9	40.9	72	32.6	0	0	---	0.00	29.886 
21:10	40.6	40.6	40.6	72	32.3	0	0	---	0.00	29.886 
21:15	40.3	40.3	40.3	73	32.3	0	0	---	0.00	29.885 
21:20	40.1	40.1	40.1	73	32.2	0	0	---	0.00	29.885 
21:25	39.8	39.8	39.8	74	32.2	0	0	---	0.00	29.885 
21:30	39.3	39.3	39.3	75	32.0	0	0	---	0.00	29.892 
21:35	39.1	39.1	39.1	76	32.2	0	0	---	0.00	29.892 
21:40	38.8	38.8	38.8	76	31.9	0	0	---	0.00	29.892 
21:45	38.8	38.8	38.8	77	32.2	0	1	248	0.00	29.900 
21:50	38.8	38.8	38.8	77	32.2	0	0	---	0.00	29.900 
21:55	38.6	38.6	38.6	78	32.3	0	0	---	0.00	29.900 
22:00	38.6	38.6	38.6	78	32.3	0	1	248	0.00	29.901 
22:05	38.9	38.9	38.9	78	32.6	0	2	248	0.00	29.901 
22:10	39.2	39.2	39.2	78	32.9	0	1	248	0.00	29.901 
22:15	39.3	39.3	39.3	78	33.0	0	0	---	0.00	29.899 
22:20	39.3	39.3	39.3	77	32.7	0	0	---	0.00	29.899 
22:25	39.2	39.2	39.2	77	32.6	0	1	248	0.00	29.899 
22:30	39.1	39.1	39.1	77	32.5	0	0	---	0.00	29.902 
22:35	38.9	38.9	38.9	78	32.6	0	0	---	0.00	29.902 
22:40	38.6	38.6	38.6	78	32.3	0	0	---	0.00	29.902 
22:45	38.5	38.5	38.5	78	32.2	0	0	---	0.00	29.905 
22:50	38.3	38.3	38.3	79	32.4	0	1	248	0.00	29.908 
22:55	38.5	38.5	38.5	79	32.6	0	1	248	0.00	29.912 

CoCoRaHS
IN-AL-39
A2 Web Hosting
Creative Commons License
GoDaddy
Look for:

loaded 2017-12-10 21:44:22 • last modified 2010-11-18 10:43:29
Privacy PolicyDisclaimer
• wx.awcolley.com is powered by PmWiki v.2002016 •
• all content (unless otherwise noted) © 2017 A W Colley